sensor_id;sensor_type;location;lat;lon;timestamp;P1;durP1;ratioP1;P2;durP2;ratioP2
76136;SDS011;68622;53.128;17.966;2023-05-02T00:00:27;11.70;;;4.00;;
76136;SDS011;68622;53.128;17.966;2023-05-02T00:03:12;12.20;;;4.30;;
76136;SDS011;68622;53.128;17.966;2023-05-02T00:05:38;12.50;;;4.30;;
76136;SDS011;68622;53.128;17.966;2023-05-02T00:08:05;10.80;;;3.90;;
76136;SDS011;68622;53.128;17.966;2023-05-02T00:10:31;12.20;;;4.30;;
76136;SDS011;68622;53.128;17.966;2023-05-02T00:12:57;12.70;;;4.10;;
76136;SDS011;68622;53.128;17.966;2023-05-02T00:15:23;11.00;;;3.80;;
76136;SDS011;68622;53.128;17.966;2023-05-02T00:17:49;10.90;;;4.20;;
76136;SDS011;68622;53.128;17.966;2023-05-02T00:20:14;11.20;;;3.60;;
76136;SDS011;68622;53.128;17.966;2023-05-02T00:22:41;11.10;;;4.00;;
76136;SDS011;68622;53.128;17.966;2023-05-02T00:25:07;9.10;;;3.40;;
76136;SDS011;68622;53.128;17.966;2023-05-02T00:27:33;11.40;;;4.30;;
76136;SDS011;68622;53.128;17.966;2023-05-02T00:29:59;11.10;;;4.20;;
76136;SDS011;68622;53.128;17.966;2023-05-02T00:32:25;8.80;;;3.80;;
76136;SDS011;68622;53.128;17.966;2023-05-02T00:34:52;9.40;;;3.80;;
76136;SDS011;68622;53.128;17.966;2023-05-02T00:37:18;13.70;;;3.90;;
76136;SDS011;68622;53.128;17.966;2023-05-02T00:39:44;9.40;;;3.40;;
76136;SDS011;68622;53.128;17.966;2023-05-02T00:42:10;12.30;;;3.90;;
76136;SDS011;68622;53.128;17.966;2023-05-02T00:44:36;8.50;;;3.40;;
76136;SDS011;68622;53.128;17.966;2023-05-02T00:47:02;10.30;;;3.20;;
76136;SDS011;68622;53.128;17.966;2023-05-02T00:49:29;11.00;;;3.40;;
76136;SDS011;68622;53.128;17.966;2023-05-02T00:51:56;9.10;;;3.20;;
76136;SDS011;68622;53.128;17.966;2023-05-02T00:54:23;9.50;;;3.40;;
76136;SDS011;68622;53.128;17.966;2023-05-02T00:56:49;11.70;;;3.90;;
76136;SDS011;68622;53.128;17.966;2023-05-02T00:59:15;9.20;;;2.90;;
76136;SDS011;68622;53.128;17.966;2023-05-02T01:04:58;10.20;;;3.70;;
76136;SDS011;68622;53.128;17.966;2023-05-02T01:13:08;12.50;;;3.50;;
76136;SDS011;68622;53.128;17.966;2023-05-02T01:15:39;12.50;;;4.60;;
76136;SDS011;68622;53.128;17.966;2023-05-02T01:18:11;11.90;;;4.20;;
76136;SDS011;68622;53.128;17.966;2023-05-02T01:20:41;12.70;;;4.70;;
76136;SDS011;68622;53.128;17.966;2023-05-02T01:26:14;11.30;;;4.90;;
76136;SDS011;68622;53.128;17.966;2023-05-02T01:28:57;12.00;;;4.20;;
76136;SDS011;68622;53.128;17.966;2023-05-02T01:31:24;14.20;;;4.10;;
76136;SDS011;68622;53.128;17.966;2023-05-02T01:33:55;9.70;;;3.80;;
76136;SDS011;68622;53.128;17.966;2023-05-02T01:36:26;11.60;;;4.10;;
76136;SDS011;68622;53.128;17.966;2023-05-02T01:38:55;9.70;;;3.90;;
76136;SDS011;68622;53.128;17.966;2023-05-02T01:41:26;10.40;;;3.90;;
76136;SDS011;68622;53.128;17.966;2023-05-02T01:43:54;10.70;;;3.80;;
76136;SDS011;68622;53.128;17.966;2023-05-02T01:46:26;11.30;;;4.40;;
76136;SDS011;68622;53.128;17.966;2023-05-02T01:49:02;10.90;;;4.10;;
76136;SDS011;68622;53.128;17.966;2023-05-02T01:51:33;11.70;;;4.00;;
76136;SDS011;68622;53.128;17.966;2023-05-02T01:54:02;10.20;;;3.80;;
76136;SDS011;68622;53.128;17.966;2023-05-02T01:56:33;12.20;;;4.10;;
76136;SDS011;68622;53.128;17.966;2023-05-02T01:59:01;14.10;;;3.80;;
76136;SDS011;68622;53.128;17.966;2023-05-02T02:01:31;11.10;;;3.90;;
76136;SDS011;68622;53.128;17.966;2023-05-02T02:03:58;10.50;;;4.50;;
76136;SDS011;68622;53.128;17.966;2023-05-02T02:06:25;10.70;;;4.70;;
76136;SDS011;68622;53.128;17.966;2023-05-02T02:08:52;11.40;;;4.10;;
76136;SDS011;68622;53.128;17.966;2023-05-02T02:11:26;10.50;;;3.60;;
76136;SDS011;68622;53.128;17.966;2023-05-02T02:14:04;11.50;;;4.60;;
76136;SDS011;68622;53.128;17.966;2023-05-02T02:16:36;13.00;;;4.50;;
76136;SDS011;68622;53.128;17.966;2023-05-02T02:19:07;10.90;;;4.20;;
76136;SDS011;68622;53.128;17.966;2023-05-02T02:21:37;11.90;;;4.10;;
76136;SDS011;68622;53.128;17.966;2023-05-02T02:24:05;13.40;;;4.70;;
76136;SDS011;68622;53.128;17.966;2023-05-02T02:26:32;12.70;;;5.00;;
76136;SDS011;68622;53.128;17.966;2023-05-02T02:28:59;14.50;;;4.40;;
76136;SDS011;68622;53.128;17.966;2023-05-02T02:31:32;10.90;;;4.60;;
76136;SDS011;68622;53.128;17.966;2023-05-02T02:34:00;12.70;;;4.20;;
76136;SDS011;68622;53.128;17.966;2023-05-02T02:36:32;11.20;;;4.30;;
76136;SDS011;68622;53.128;17.966;2023-05-02T02:42:05;13.20;;;4.80;;
76136;SDS011;68622;53.128;17.966;2023-05-02T02:50:56;12.30;;;4.70;;
76136;SDS011;68622;53.128;17.966;2023-05-02T02:54:20;17.00;;;4.90;;
76136;SDS011;68622;53.128;17.966;2023-05-02T02:56:38;13.30;;;4.30;;
76136;SDS011;68622;53.128;17.966;2023-05-02T03:02:04;11.30;;;4.60;;
76136;SDS011;68622;53.128;17.966;2023-05-02T03:04:39;11.90;;;4.60;;
76136;SDS011;68622;53.128;17.966;2023-05-02T03:07:06;13.70;;;4.80;;
76136;SDS011;68622;53.128;17.966;2023-05-02T03:09:39;11.60;;;4.40;;
76136;SDS011;68622;53.128;17.966;2023-05-02T03:12:07;10.80;;;4.30;;
76136;SDS011;68622;53.128;17.966;2023-05-02T03:14:35;10.70;;;4.10;;
76136;SDS011;68622;53.128;17.966;2023-05-02T03:17:02;13.00;;;4.50;;
76136;SDS011;68622;53.128;17.966;2023-05-02T03:19:28;10.60;;;4.60;;
76136;SDS011;68622;53.128;17.966;2023-05-02T03:21:55;11.30;;;5.10;;
76136;SDS011;68622;53.128;17.966;2023-05-02T03:24:21;12.30;;;5.90;;
76136;SDS011;68622;53.128;17.966;2023-05-02T03:26:47;13.20;;;5.90;;
76136;SDS011;68622;53.128;17.966;2023-05-02T03:29:14;15.20;;;6.10;;
76136;SDS011;68622;53.128;17.966;2023-05-02T03:31:41;14.70;;;5.20;;
76136;SDS011;68622;53.128;17.966;2023-05-02T03:34:07;13.70;;;5.20;;
76136;SDS011;68622;53.128;17.966;2023-05-02T03:36:33;14.40;;;4.90;;
76136;SDS011;68622;53.128;17.966;2023-05-02T03:38:59;14.40;;;5.40;;
76136;SDS011;68622;53.128;17.966;2023-05-02T03:41:25;11.30;;;4.30;;
76136;SDS011;68622;53.128;17.966;2023-05-02T03:43:55;11.10;;;4.90;;
76136;SDS011;68622;53.128;17.966;2023-05-02T03:46:21;14.20;;;5.00;;
76136;SDS011;68622;53.128;17.966;2023-05-02T03:48:48;11.60;;;5.50;;
76136;SDS011;68622;53.128;17.966;2023-05-02T03:51:14;20.30;;;4.90;;
76136;SDS011;68622;53.128;17.966;2023-05-02T03:53:41;17.80;;;5.20;;
76136;SDS011;68622;53.128;17.966;2023-05-02T03:56:07;10.70;;;4.60;;
76136;SDS011;68622;53.128;17.966;2023-05-02T03:58:38;12.00;;;4.50;;
76136;SDS011;68622;53.128;17.966;2023-05-02T04:01:12;16.80;;;5.00;;
76136;SDS011;68622;53.128;17.966;2023-05-02T04:03:39;13.30;;;4.60;;
76136;SDS011;68622;53.128;17.966;2023-05-02T04:06:06;13.90;;;4.40;;
76136;SDS011;68622;53.128;17.966;2023-05-02T04:08:33;11.70;;;4.70;;
76136;SDS011;68622;53.128;17.966;2023-05-02T04:10:59;11.60;;;4.30;;
76136;SDS011;68622;53.128;17.966;2023-05-02T04:13:26;11.50;;;4.90;;
76136;SDS011;68622;53.128;17.966;2023-05-02T04:15:54;14.20;;;4.90;;
76136;SDS011;68622;53.128;17.966;2023-05-02T04:18:21;13.90;;;4.90;;
76136;SDS011;68622;53.128;17.966;2023-05-02T04:20:48;10.50;;;4.70;;
76136;SDS011;68622;53.128;17.966;2023-05-02T04:23:18;12.70;;;4.90;;
76136;SDS011;68622;53.128;17.966;2023-05-02T04:25:52;13.00;;;4.50;;
76136;SDS011;68622;53.128;17.966;2023-05-02T04:28:20;11.40;;;3.80;;
76136;SDS011;68622;53.128;17.966;2023-05-02T04:30:48;14.30;;;4.60;;
76136;SDS011;68622;53.128;17.966;2023-05-02T04:33:15;12.80;;;5.00;;
76136;SDS011;68622;53.128;17.966;2023-05-02T04:35:43;15.20;;;5.00;;
76136;SDS011;68622;53.128;17.966;2023-05-02T04:38:12;13.70;;;5.30;;
76136;SDS011;68622;53.128;17.966;2023-05-02T04:40:38;20.20;;;7.60;;
76136;SDS011;68622;53.128;17.966;2023-05-02T04:43:06;14.60;;;5.50;;
76136;SDS011;68622;53.128;17.966;2023-05-02T04:45:43;16.70;;;6.20;;
76136;SDS011;68622;53.128;17.966;2023-05-02T04:48:14;15.50;;;5.70;;
76136;SDS011;68622;53.128;17.966;2023-05-02T04:50:40;13.70;;;5.40;;
76136;SDS011;68622;53.128;17.966;2023-05-02T04:53:06;15.00;;;6.10;;
76136;SDS011;68622;53.128;17.966;2023-05-02T04:55:33;15.20;;;5.40;;
76136;SDS011;68622;53.128;17.966;2023-05-02T04:57:59;14.80;;;5.80;;
76136;SDS011;68622;53.128;17.966;2023-05-02T05:00:25;13.80;;;5.60;;
76136;SDS011;68622;53.128;17.966;2023-05-02T05:02:51;18.50;;;6.40;;
76136;SDS011;68622;53.128;17.966;2023-05-02T05:05:17;14.30;;;6.10;;
76136;SDS011;68622;53.128;17.966;2023-05-02T05:07:43;17.30;;;6.60;;
76136;SDS011;68622;53.128;17.966;2023-05-02T05:10:10;13.40;;;5.90;;
76136;SDS011;68622;53.128;17.966;2023-05-02T05:12:42;16.60;;;6.10;;
76136;SDS011;68622;53.128;17.966;2023-05-02T05:15:08;14.10;;;5.70;;
76136;SDS011;68622;53.128;17.966;2023-05-02T05:17:34;13.20;;;5.80;;
76136;SDS011;68622;53.128;17.966;2023-05-02T05:20:01;16.20;;;6.60;;
76136;SDS011;68622;53.128;17.966;2023-05-02T05:22:28;12.70;;;5.70;;
76136;SDS011;68622;53.128;17.966;2023-05-02T05:24:55;15.00;;;6.50;;
76136;SDS011;68622;53.128;17.966;2023-05-02T05:27:25;16.40;;;6.30;;
76136;SDS011;68622;53.128;17.966;2023-05-02T05:29:51;16.10;;;6.90;;
76136;SDS011;68622;53.128;17.966;2023-05-02T05:32:18;12.40;;;5.70;;
76136;SDS011;68622;53.128;17.966;2023-05-02T05:34:45;16.90;;;6.60;;
76136;SDS011;68622;53.128;17.966;2023-05-02T05:37:11;16.20;;;7.50;;
76136;SDS011;68622;53.128;17.966;2023-05-02T05:39:38;14.30;;;6.10;;
76136;SDS011;68622;53.128;17.966;2023-05-02T05:42:04;14.60;;;6.30;;
76136;SDS011;68622;53.128;17.966;2023-05-02T05:44:31;15.90;;;6.40;;
76136;SDS011;68622;53.128;17.966;2023-05-02T05:46:58;15.60;;;6.90;;
76136;SDS011;68622;53.128;17.966;2023-05-02T05:49:25;14.70;;;6.90;;
76136;SDS011;68622;53.128;17.966;2023-05-02T05:51:51;12.60;;;7.10;;
76136;SDS011;68622;53.128;17.966;2023-05-02T05:54:17;14.40;;;6.30;;
76136;SDS011;68622;53.128;17.966;2023-05-02T05:56:44;15.50;;;7.10;;
76136;SDS011;68622;53.128;17.966;2023-05-02T05:59:13;15.90;;;7.10;;
76136;SDS011;68622;53.128;17.966;2023-05-02T06:01:39;14.20;;;5.80;;
76136;SDS011;68622;53.128;17.966;2023-05-02T06:04:06;17.40;;;6.30;;
76136;SDS011;68622;53.128;17.966;2023-05-02T06:06:35;15.60;;;6.30;;
76136;SDS011;68622;53.128;17.966;2023-05-02T06:09:02;13.30;;;6.20;;
76136;SDS011;68622;53.128;17.966;2023-05-02T06:11:29;12.30;;;6.20;;
76136;SDS011;68622;53.128;17.966;2023-05-02T06:13:55;15.00;;;6.60;;
76136;SDS011;68622;53.128;17.966;2023-05-02T06:16:22;17.40;;;7.20;;
76136;SDS011;68622;53.128;17.966;2023-05-02T06:18:49;14.90;;;6.50;;
76136;SDS011;68622;53.128;17.966;2023-05-02T06:21:16;15.30;;;6.90;;
76136;SDS011;68622;53.128;17.966;2023-05-02T06:23:42;14.70;;;5.70;;
76136;SDS011;68622;53.128;17.966;2023-05-02T06:26:07;14.80;;;7.10;;
76136;SDS011;68622;53.128;17.966;2023-05-02T06:28:34;10.50;;;5.30;;
76136;SDS011;68622;53.128;17.966;2023-05-02T06:31:01;20.90;;;7.50;;
76136;SDS011;68622;53.128;17.966;2023-05-02T06:33:28;14.60;;;6.50;;
76136;SDS011;68622;53.128;17.966;2023-05-02T06:35:55;15.50;;;6.90;;
76136;SDS011;68622;53.128;17.966;2023-05-02T06:38:22;12.30;;;5.90;;
76136;SDS011;68622;53.128;17.966;2023-05-02T06:40:48;17.90;;;6.20;;
76136;SDS011;68622;53.128;17.966;2023-05-02T06:43:14;13.90;;;6.50;;
76136;SDS011;68622;53.128;17.966;2023-05-02T06:45:40;11.00;;;5.50;;
76136;SDS011;68622;53.128;17.966;2023-05-02T06:48:06;13.40;;;6.10;;
76136;SDS011;68622;53.128;17.966;2023-05-02T06:50:33;13.70;;;7.10;;
76136;SDS011;68622;53.128;17.966;2023-05-02T06:52:59;13.40;;;6.20;;
76136;SDS011;68622;53.128;17.966;2023-05-02T06:55:25;16.30;;;7.20;;
76136;SDS011;68622;53.128;17.966;2023-05-02T06:57:52;16.40;;;7.40;;
76136;SDS011;68622;53.128;17.966;2023-05-02T07:00:19;12.60;;;6.70;;
76136;SDS011;68622;53.128;17.966;2023-05-02T07:02:46;15.40;;;7.20;;
76136;SDS011;68622;53.128;17.966;2023-05-02T07:05:13;14.10;;;6.50;;
76136;SDS011;68622;53.128;17.966;2023-05-02T07:07:40;16.60;;;6.90;;
76136;SDS011;68622;53.128;17.966;2023-05-02T07:10:08;15.00;;;6.50;;
76136;SDS011;68622;53.128;17.966;2023-05-02T07:12:36;16.40;;;6.90;;
76136;SDS011;68622;53.128;17.966;2023-05-02T07:15:04;17.00;;;6.50;;
76136;SDS011;68622;53.128;17.966;2023-05-02T07:17:31;12.90;;;6.00;;
76136;SDS011;68622;53.128;17.966;2023-05-02T07:19:57;16.40;;;7.20;;
76136;SDS011;68622;53.128;17.966;2023-05-02T07:22:23;18.10;;;7.60;;
76136;SDS011;68622;53.128;17.966;2023-05-02T07:24:55;19.00;;;7.40;;
76136;SDS011;68622;53.128;17.966;2023-05-02T07:27:23;15.90;;;7.00;;
76136;SDS011;68622;53.128;17.966;2023-05-02T07:29:49;15.10;;;6.80;;
76136;SDS011;68622;53.128;17.966;2023-05-02T07:32:16;14.70;;;7.40;;
76136;SDS011;68622;53.128;17.966;2023-05-02T07:34:42;19.60;;;8.40;;
76136;SDS011;68622;53.128;17.966;2023-05-02T07:37:08;17.50;;;7.00;;
76136;SDS011;68622;53.128;17.966;2023-05-02T07:39:34;13.90;;;6.90;;
76136;SDS011;68622;53.128;17.966;2023-05-02T07:42:00;13.70;;;6.00;;
76136;SDS011;68622;53.128;17.966;2023-05-02T07:44:28;13.20;;;6.80;;
76136;SDS011;68622;53.128;17.966;2023-05-02T07:46:53;11.50;;;6.60;;
76136;SDS011;68622;53.128;17.966;2023-05-02T07:49:20;15.00;;;7.30;;
76136;SDS011;68622;53.128;17.966;2023-05-02T07:51:45;14.50;;;7.20;;
76136;SDS011;68622;53.128;17.966;2023-05-02T07:54:18;14.80;;;6.80;;
76136;SDS011;68622;53.128;17.966;2023-05-02T07:56:45;13.80;;;7.00;;
76136;SDS011;68622;53.128;17.966;2023-05-02T07:59:12;13.00;;;5.50;;
76136;SDS011;68622;53.128;17.966;2023-05-02T08:01:38;11.90;;;6.10;;
76136;SDS011;68622;53.128;17.966;2023-05-02T08:04:08;13.10;;;6.00;;
76136;SDS011;68622;53.128;17.966;2023-05-02T08:06:37;10.60;;;4.60;;
76136;SDS011;68622;53.128;17.966;2023-05-02T08:09:03;12.70;;;5.80;;
76136;SDS011;68622;53.128;17.966;2023-05-02T08:11:29;11.40;;;5.50;;
76136;SDS011;68622;53.128;17.966;2023-05-02T08:13:55;10.00;;;4.70;;
76136;SDS011;68622;53.128;17.966;2023-05-02T08:16:21;12.20;;;4.70;;
76136;SDS011;68622;53.128;17.966;2023-05-02T08:18:47;10.50;;;3.80;;
76136;SDS011;68622;53.128;17.966;2023-05-02T08:21:12;8.90;;;3.30;;
76136;SDS011;68622;53.128;17.966;2023-05-02T08:23:39;9.10;;;4.20;;
76136;SDS011;68622;53.128;17.966;2023-05-02T08:26:06;6.50;;;2.70;;
76136;SDS011;68622;53.128;17.966;2023-05-02T08:28:32;9.60;;;2.80;;
76136;SDS011;68622;53.128;17.966;2023-05-02T08:30:58;7.00;;;2.30;;
76136;SDS011;68622;53.128;17.966;2023-05-02T08:33:24;8.80;;;2.00;;
76136;SDS011;68622;53.128;17.966;2023-05-02T08:35:51;7.00;;;2.30;;
76136;SDS011;68622;53.128;17.966;2023-05-02T08:38:17;6.50;;;2.50;;
76136;SDS011;68622;53.128;17.966;2023-05-02T08:40:43;5.50;;;2.30;;
76136;SDS011;68622;53.128;17.966;2023-05-02T08:43:10;6.60;;;2.30;;
76136;SDS011;68622;53.128;17.966;2023-05-02T08:45:40;9.10;;;2.30;;
76136;SDS011;68622;53.128;17.966;2023-05-02T08:48:08;6.30;;;2.20;;
76136;SDS011;68622;53.128;17.966;2023-05-02T08:50:36;6.90;;;2.70;;
76136;SDS011;68622;53.128;17.966;2023-05-02T08:53:06;8.40;;;2.80;;
76136;SDS011;68622;53.128;17.966;2023-05-02T08:55:33;6.50;;;2.90;;
76136;SDS011;68622;53.128;17.966;2023-05-02T08:58:04;7.60;;;3.00;;
76136;SDS011;68622;53.128;17.966;2023-05-02T09:00:31;8.90;;;2.80;;
76136;SDS011;68622;53.128;17.966;2023-05-02T09:05:52;7.30;;;3.00;;
76136;SDS011;68622;53.128;17.966;2023-05-02T09:08:22;8.00;;;3.10;;
76136;SDS011;68622;53.128;17.966;2023-05-02T09:10:49;7.90;;;2.90;;
76136;SDS011;68622;53.128;17.966;2023-05-02T09:13:29;9.80;;;4.10;;
76136;SDS011;68622;53.128;17.966;2023-05-02T09:16:02;8.20;;;3.60;;
76136;SDS011;68622;53.128;17.966;2023-05-02T09:18:32;11.00;;;3.60;;
76136;SDS011;68622;53.128;17.966;2023-05-02T09:21:13;10.80;;;5.40;;
76136;SDS011;68622;53.128;17.966;2023-05-02T09:23:45;7.30;;;2.60;;
76136;SDS011;68622;53.128;17.966;2023-05-02T09:26:13;7.40;;;2.80;;
76136;SDS011;68622;53.128;17.966;2023-05-02T09:28:42;8.10;;;3.10;;
76136;SDS011;68622;53.128;17.966;2023-05-02T09:31:13;7.90;;;2.80;;
76136;SDS011;68622;53.128;17.966;2023-05-02T09:33:40;9.50;;;3.30;;
76136;SDS011;68622;53.128;17.966;2023-05-02T09:36:08;9.00;;;2.70;;
76136;SDS011;68622;53.128;17.966;2023-05-02T09:38:36;8.10;;;3.10;;
76136;SDS011;68622;53.128;17.966;2023-05-02T09:41:03;8.40;;;3.30;;
76136;SDS011;68622;53.128;17.966;2023-05-02T09:43:32;8.00;;;3.40;;
76136;SDS011;68622;53.128;17.966;2023-05-02T09:46:02;10.20;;;3.60;;
76136;SDS011;68622;53.128;17.966;2023-05-02T09:48:29;8.90;;;3.60;;
76136;SDS011;68622;53.128;17.966;2023-05-02T09:50:56;6.50;;;2.90;;
76136;SDS011;68622;53.128;17.966;2023-05-02T09:53:23;7.00;;;2.20;;
76136;SDS011;68622;53.128;17.966;2023-05-02T09:56:08;8.20;;;2.90;;
76136;SDS011;68622;53.128;17.966;2023-05-02T09:58:34;7.10;;;2.70;;
76136;SDS011;68622;53.128;17.966;2023-05-02T10:01:00;7.00;;;2.50;;
76136;SDS011;68622;53.128;17.966;2023-05-02T10:03:27;6.80;;;2.70;;
76136;SDS011;68622;53.128;17.966;2023-05-02T10:05:54;6.50;;;2.80;;
76136;SDS011;68622;53.128;17.966;2023-05-02T10:08:23;8.20;;;2.40;;
76136;SDS011;68622;53.128;17.966;2023-05-02T10:10:53;7.40;;;2.20;;
76136;SDS011;68622;53.128;17.966;2023-05-02T10:13:20;9.40;;;2.90;;
76136;SDS011;68622;53.128;17.966;2023-05-02T10:15:49;9.20;;;2.40;;
76136;SDS011;68622;53.128;17.966;2023-05-02T10:21:10;7.30;;;3.60;;
76136;SDS011;68622;53.128;17.966;2023-05-02T10:23:40;7.80;;;2.30;;
76136;SDS011;68622;53.128;17.966;2023-05-02T10:26:14;7.40;;;2.10;;
76136;SDS011;68622;53.128;17.966;2023-05-02T10:28:41;9.60;;;2.60;;
76136;SDS011;68622;53.128;17.966;2023-05-02T10:31:11;6.70;;;2.40;;
76136;SDS011;68622;53.128;17.966;2023-05-02T10:33:39;8.20;;;2.70;;
76136;SDS011;68622;53.128;17.966;2023-05-02T10:36:07;10.30;;;3.20;;
76136;SDS011;68622;53.128;17.966;2023-05-02T10:38:34;9.00;;;3.00;;
76136;SDS011;68622;53.128;17.966;2023-05-02T10:41:03;10.60;;;2.70;;
76136;SDS011;68622;53.128;17.966;2023-05-02T10:43:35;9.50;;;3.20;;
76136;SDS011;68622;53.128;17.966;2023-05-02T10:46:02;9.90;;;3.20;;
76136;SDS011;68622;53.128;17.966;2023-05-02T10:49:01;10.40;;;3.30;;
76136;SDS011;68622;53.128;17.966;2023-05-02T10:51:28;8.00;;;3.00;;
76136;SDS011;68622;53.128;17.966;2023-05-02T10:59:32;8.80;;;3.20;;
76136;SDS011;68622;53.128;17.966;2023-05-02T11:02:03;7.10;;;2.90;;
76136;SDS011;68622;53.128;17.966;2023-05-02T11:07:29;10.70;;;3.50;;
76136;SDS011;68622;53.128;17.966;2023-05-02T11:10:22;7.90;;;3.30;;
76136;SDS011;68622;53.128;17.966;2023-05-02T11:12:51;7.90;;;3.70;;
76136;SDS011;68622;53.128;17.966;2023-05-02T11:17:57;7.70;;;3.40;;
76136;SDS011;68622;53.128;17.966;2023-05-02T11:20:25;9.00;;;3.20;;
76136;SDS011;68622;53.128;17.966;2023-05-02T11:22:53;9.10;;;3.60;;
76136;SDS011;68622;53.128;17.966;2023-05-02T11:28:00;11.40;;;3.50;;
76136;SDS011;68622;53.128;17.966;2023-05-02T11:30:37;6.90;;;3.00;;
76136;SDS011;68622;53.128;17.966;2023-05-02T11:33:10;7.00;;;3.00;;
76136;SDS011;68622;53.128;17.966;2023-05-02T11:35:36;9.70;;;3.40;;
76136;SDS011;68622;53.128;17.966;2023-05-02T11:38:17;8.60;;;2.80;;
76136;SDS011;68622;53.128;17.966;2023-05-02T11:40:51;10.00;;;3.30;;
76136;SDS011;68622;53.128;17.966;2023-05-02T11:43:18;10.00;;;3.40;;
76136;SDS011;68622;53.128;17.966;2023-05-02T11:45:49;9.30;;;3.30;;
76136;SDS011;68622;53.128;17.966;2023-05-02T11:48:17;8.20;;;4.50;;
76136;SDS011;68622;53.128;17.966;2023-05-02T11:50:46;6.80;;;2.70;;
76136;SDS011;68622;53.128;17.966;2023-05-02T11:53:14;8.80;;;2.90;;
76136;SDS011;68622;53.128;17.966;2023-05-02T11:55:51;8.10;;;3.20;;
76136;SDS011;68622;53.128;17.966;2023-05-02T11:58:21;7.70;;;2.70;;
76136;SDS011;68622;53.128;17.966;2023-05-02T12:00:49;7.50;;;3.20;;
76136;SDS011;68622;53.128;17.966;2023-05-02T12:05:54;6.80;;;2.20;;
76136;SDS011;68622;53.128;17.966;2023-05-02T12:08:21;7.40;;;2.50;;
76136;SDS011;68622;53.128;17.966;2023-05-02T12:10:49;7.30;;;2.30;;
76136;SDS011;68622;53.128;17.966;2023-05-02T12:13:17;7.20;;;2.50;;
76136;SDS011;68622;53.128;17.966;2023-05-02T12:15:46;6.10;;;2.20;;
76136;SDS011;68622;53.128;17.966;2023-05-02T12:18:13;5.60;;;2.10;;
76136;SDS011;68622;53.128;17.966;2023-05-02T12:20:40;7.20;;;2.20;;
76136;SDS011;68622;53.128;17.966;2023-05-02T12:23:07;8.50;;;2.40;;
76136;SDS011;68622;53.128;17.966;2023-05-02T12:25:38;7.00;;;2.40;;
76136;SDS011;68622;53.128;17.966;2023-05-02T12:28:05;6.40;;;2.40;;
76136;SDS011;68622;53.128;17.966;2023-05-02T12:30:32;15.70;;;3.70;;
76136;SDS011;68622;53.128;17.966;2023-05-02T12:33:00;8.40;;;4.00;;
76136;SDS011;68622;53.128;17.966;2023-05-02T12:35:29;6.60;;;3.00;;
76136;SDS011;68622;53.128;17.966;2023-05-02T12:40:36;11.50;;;4.70;;
76136;SDS011;68622;53.128;17.966;2023-05-02T12:43:04;9.60;;;4.50;;
76136;SDS011;68622;53.128;17.966;2023-05-02T12:45:35;11.80;;;4.60;;
76136;SDS011;68622;53.128;17.966;2023-05-02T12:48:16;11.20;;;4.50;;
76136;SDS011;68622;53.128;17.966;2023-05-02T12:50:43;8.30;;;4.70;;
76136;SDS011;68622;53.128;17.966;2023-05-02T12:53:09;10.80;;;4.50;;
76136;SDS011;68622;53.128;17.966;2023-05-02T12:55:35;10.80;;;4.60;;
76136;SDS011;68622;53.128;17.966;2023-05-02T12:58:02;11.50;;;4.80;;
76136;SDS011;68622;53.128;17.966;2023-05-02T13:00:36;9.20;;;4.20;;
76136;SDS011;68622;53.128;17.966;2023-05-02T13:03:04;8.30;;;4.00;;
76136;SDS011;68622;53.128;17.966;2023-05-02T13:05:31;10.60;;;4.50;;
76136;SDS011;68622;53.128;17.966;2023-05-02T13:07:57;9.50;;;4.30;;
76136;SDS011;68622;53.128;17.966;2023-05-02T13:10:24;9.20;;;4.50;;
76136;SDS011;68622;53.128;17.966;2023-05-02T13:12:52;10.90;;;4.50;;
76136;SDS011;68622;53.128;17.966;2023-05-02T13:15:19;8.50;;;3.80;;
76136;SDS011;68622;53.128;17.966;2023-05-02T13:17:46;8.90;;;3.90;;
76136;SDS011;68622;53.128;17.966;2023-05-02T13:20:13;8.70;;;4.10;;
76136;SDS011;68622;53.128;17.966;2023-05-02T13:22:40;8.50;;;4.40;;
76136;SDS011;68622;53.128;17.966;2023-05-02T13:25:06;10.60;;;4.40;;
76136;SDS011;68622;53.128;17.966;2023-05-02T13:27:33;9.10;;;4.50;;
76136;SDS011;68622;53.128;17.966;2023-05-02T13:30:00;8.60;;;4.50;;
76136;SDS011;68622;53.128;17.966;2023-05-02T13:32:28;9.80;;;4.20;;
76136;SDS011;68622;53.128;17.966;2023-05-02T13:34:54;9.20;;;4.30;;
76136;SDS011;68622;53.128;17.966;2023-05-02T13:37:20;10.90;;;4.60;;
76136;SDS011;68622;53.128;17.966;2023-05-02T13:39:46;10.80;;;4.80;;
76136;SDS011;68622;53.128;17.966;2023-05-02T13:42:12;9.10;;;4.40;;
76136;SDS011;68622;53.128;17.966;2023-05-02T13:44:38;10.60;;;4.80;;
76136;SDS011;68622;53.128;17.966;2023-05-02T13:47:05;7.30;;;3.90;;
76136;SDS011;68622;53.128;17.966;2023-05-02T13:49:30;7.80;;;3.30;;
76136;SDS011;68622;53.128;17.966;2023-05-02T13:51:56;8.50;;;3.90;;
76136;SDS011;68622;53.128;17.966;2023-05-02T13:54:22;9.10;;;4.10;;
76136;SDS011;68622;53.128;17.966;2023-05-02T13:56:48;7.20;;;3.10;;
76136;SDS011;68622;53.128;17.966;2023-05-02T13:59:15;9.50;;;3.60;;
76136;SDS011;68622;53.128;17.966;2023-05-02T14:01:40;8.60;;;3.60;;
76136;SDS011;68622;53.128;17.966;2023-05-02T14:04:07;7.70;;;2.80;;
76136;SDS011;68622;53.128;17.966;2023-05-02T14:06:33;7.90;;;3.10;;
76136;SDS011;68622;53.128;17.966;2023-05-02T14:09:00;6.70;;;2.70;;
76136;SDS011;68622;53.128;17.966;2023-05-02T14:11:26;6.00;;;2.70;;
76136;SDS011;68622;53.128;17.966;2023-05-02T14:13:52;6.00;;;2.40;;
76136;SDS011;68622;53.128;17.966;2023-05-02T14:16:18;5.90;;;2.30;;
76136;SDS011;68622;53.128;17.966;2023-05-02T14:18:46;6.50;;;2.10;;
76136;SDS011;68622;53.128;17.966;2023-05-02T14:21:14;6.90;;;2.20;;
76136;SDS011;68622;53.128;17.966;2023-05-02T14:23:41;5.80;;;2.20;;
76136;SDS011;68622;53.128;17.966;2023-05-02T14:26:08;5.60;;;1.80;;
76136;SDS011;68622;53.128;17.966;2023-05-02T14:28:34;5.30;;;1.80;;
76136;SDS011;68622;53.128;17.966;2023-05-02T14:31:01;12.90;;;2.40;;
76136;SDS011;68622;53.128;17.966;2023-05-02T14:33:27;4.90;;;1.50;;
76136;SDS011;68622;53.128;17.966;2023-05-02T14:35:53;5.00;;;1.80;;
76136;SDS011;68622;53.128;17.966;2023-05-02T14:38:18;4.80;;;1.40;;
76136;SDS011;68622;53.128;17.966;2023-05-02T14:40:44;6.30;;;1.60;;
76136;SDS011;68622;53.128;17.966;2023-05-02T14:43:11;4.30;;;1.50;;
76136;SDS011;68622;53.128;17.966;2023-05-02T14:45:37;5.00;;;1.40;;
76136;SDS011;68622;53.128;17.966;2023-05-02T14:48:03;6.00;;;1.70;;
76136;SDS011;68622;53.128;17.966;2023-05-02T14:50:28;4.80;;;1.50;;
76136;SDS011;68622;53.128;17.966;2023-05-02T14:52:55;5.10;;;1.60;;
76136;SDS011;68622;53.128;17.966;2023-05-02T14:55:21;5.20;;;1.70;;
76136;SDS011;68622;53.128;17.966;2023-05-02T14:57:47;4.10;;;1.20;;
76136;SDS011;68622;53.128;17.966;2023-05-02T15:00:13;5.60;;;1.60;;
76136;SDS011;68622;53.128;17.966;2023-05-02T15:02:41;4.90;;;1.30;;
76136;SDS011;68622;53.128;17.966;2023-05-02T15:05:07;4.40;;;1.30;;
76136;SDS011;68622;53.128;17.966;2023-05-02T15:07:37;4.20;;;1.30;;
76136;SDS011;68622;53.128;17.966;2023-05-02T15:10:03;4.00;;;1.00;;
76136;SDS011;68622;53.128;17.966;2023-05-02T15:12:30;4.00;;;1.40;;
76136;SDS011;68622;53.128;17.966;2023-05-02T15:14:56;5.10;;;1.60;;
76136;SDS011;68622;53.128;17.966;2023-05-02T15:17:22;3.50;;;1.10;;
76136;SDS011;68622;53.128;17.966;2023-05-02T15:19:48;5.70;;;1.30;;